createdAt,value
2023-04-28T00:00:51.458Z,24.77
2023-04-28T00:01:51.472Z,24.74
2023-04-28T00:02:51.595Z,24.74
2023-04-28T00:03:51.708Z,24.71
2023-04-28T00:04:52.059Z,24.74
2023-04-28T00:05:51.537Z,24.71
2023-04-28T00:06:51.520Z,24.71
2023-04-28T00:07:51.540Z,24.71
2023-04-28T00:08:51.567Z,24.67
2023-04-28T00:09:51.625Z,24.68
2023-04-28T00:10:51.645Z,24.64
2023-04-28T00:11:51.650Z,24.64
2023-04-28T00:12:51.688Z,24.63
2023-04-28T00:13:51.709Z,24.61
2023-04-28T00:14:51.770Z,24.61
2023-04-28T00:15:51.807Z,24.61
2023-04-28T00:16:51.922Z,24.60
2023-04-28T00:17:51.953Z,24.61
2023-04-28T00:18:51.880Z,24.56
2023-04-28T00:19:51.910Z,24.58
2023-04-28T00:20:51.941Z,24.58
2023-04-28T00:21:51.979Z,24.56
2023-04-28T00:22:52.002Z,24.54
2023-04-28T00:23:52.037Z,24.53
2023-04-28T00:24:52.071Z,24.53
2023-04-28T00:25:52.107Z,24.53
2023-04-28T00:26:52.175Z,24.53
2023-04-28T00:27:52.172Z,24.51
2023-04-28T00:28:52.207Z,24.53
2023-04-28T00:29:52.240Z,24.53
2023-04-28T00:30:52.279Z,24.53
2023-04-28T00:31:52.327Z,24.51
2023-04-28T00:32:52.361Z,24.51
2023-04-28T00:33:52.382Z,24.50
2023-04-28T00:34:52.422Z,24.50
2023-04-28T00:35:52.470Z,24.48
2023-04-28T00:36:52.506Z,24.50
2023-04-28T00:37:52.527Z,24.48
2023-04-28T00:38:52.564Z,24.48
2023-04-28T00:39:52.604Z,24.46
2023-04-28T00:40:52.643Z,24.47
2023-04-28T00:41:52.676Z,24.47
2023-04-28T00:42:52.746Z,24.47
2023-04-28T00:43:52.756Z,24.47
2023-04-28T00:44:52.793Z,24.46
2023-04-28T00:45:52.879Z,24.46
2023-04-28T00:46:52.865Z,24.44
2023-04-28T00:47:52.918Z,24.44
2023-04-28T00:48:52.945Z,24.46
2023-04-28T00:49:52.995Z,24.43
2023-04-28T00:50:53.031Z,24.47
2023-04-28T00:51:53.054Z,24.46
2023-04-28T00:52:53.102Z,24.43
2023-04-28T00:53:53.126Z,24.43
2023-04-28T00:54:53.183Z,24.43
2023-04-28T00:55:53.210Z,24.43
2023-04-28T00:56:53.248Z,24.41
2023-04-28T00:57:53.287Z,24.40
2023-04-28T00:58:53.354Z,24.43
2023-04-28T00:59:53.365Z,24.41
2023-04-28T01:00:53.446Z,24.41
2023-04-28T01:01:53.438Z,24.40
2023-04-28T01:02:53.703Z,24.41
2023-04-28T01:03:53.781Z,24.40
2023-04-28T01:04:53.550Z,24.39
2023-04-28T01:05:53.596Z,24.39
2023-04-28T01:06:53.635Z,24.40
2023-04-28T01:07:53.670Z,24.39
2023-04-28T01:08:53.698Z,24.40
2023-04-28T01:09:53.736Z,24.40
2023-04-28T01:10:53.777Z,24.37
2023-04-28T01:11:53.822Z,24.37
2023-04-28T01:12:53.849Z,24.40
2023-04-28T01:13:53.949Z,24.40
2023-04-28T01:14:53.960Z,24.37
2023-04-28T01:15:53.967Z,24.36
2023-04-28T01:16:54.170Z,24.39
2023-04-28T01:17:54.099Z,24.40
2023-04-28T01:18:54.103Z,24.39
2023-04-28T01:19:54.142Z,24.39
2023-04-28T01:20:54.191Z,24.36
2023-04-28T01:21:54.239Z,24.34
2023-04-28T01:22:55.271Z,24.36
2023-04-28T01:23:55.271Z,24.33
2023-04-28T01:24:54.350Z,24.34
2023-04-28T01:25:54.390Z,24.34
2023-04-28T01:26:54.435Z,24.33
2023-04-28T01:27:54.464Z,24.34
2023-04-28T01:28:54.505Z,24.33
2023-04-28T01:29:54.536Z,24.34
2023-04-28T01:30:54.607Z,24.34
2023-04-28T01:31:54.670Z,24.37
2023-04-28T01:32:54.767Z,24.34
2023-04-28T01:33:54.716Z,24.34
2023-04-28T01:34:54.782Z,24.33
2023-04-28T01:35:54.807Z,24.34
2023-04-28T01:36:54.858Z,24.33
2023-04-28T01:37:54.927Z,24.31
2023-04-28T01:38:54.923Z,24.33
2023-04-28T01:39:54.967Z,24.31
2023-04-28T01:40:55.006Z,24.31
2023-04-28T01:41:55.057Z,24.33
2023-04-28T01:42:55.082Z,24.31
2023-04-28T01:43:55.137Z,24.30
2023-04-28T01:44:55.168Z,24.31
2023-04-28T01:45:55.283Z,24.31
2023-04-28T01:46:55.285Z,24.31
2023-04-28T01:47:55.387Z,24.30
2023-04-28T01:48:55.343Z,24.31
2023-04-28T01:49:55.387Z,24.30
2023-04-28T01:50:55.483Z,24.29
2023-04-28T01:51:55.472Z,24.31
2023-04-28T01:52:55.527Z,24.29
2023-04-28T01:53:55.580Z,24.27
2023-04-28T01:54:55.602Z,24.29
2023-04-28T01:55:55.640Z,24.29
2023-04-28T01:56:55.694Z,24.29
2023-04-28T01:57:55.727Z,24.27
2023-04-28T01:58:55.773Z,24.26
2023-04-28T01:59:55.808Z,24.29
2023-04-28T02:00:55.855Z,24.29
2023-04-28T02:01:56.018Z,24.29
2023-04-28T02:02:56.035Z,24.27
2023-04-28T02:03:56.116Z,24.27
2023-04-28T02:04:56.113Z,24.29
2023-04-28T02:05:56.071Z,24.27
2023-04-28T02:06:56.114Z,24.27
2023-04-28T02:07:56.161Z,24.26
2023-04-28T02:08:56.199Z,24.27
2023-04-28T02:09:56.244Z,24.27
2023-04-28T02:10:56.285Z,24.24
2023-04-28T02:11:56.341Z,24.26
2023-04-28T02:12:56.387Z,24.26
2023-04-28T02:13:56.436Z,24.27
2023-04-28T02:14:56.474Z,24.24
2023-04-28T02:15:56.589Z,24.24
2023-04-28T02:16:56.563Z,24.23
2023-04-28T02:17:56.688Z,24.26
2023-04-28T02:18:56.670Z,24.27
2023-04-28T02:19:56.722Z,24.26
2023-04-28T02:20:56.741Z,24.24
2023-04-28T02:21:56.810Z,24.24
2023-04-28T02:22:56.826Z,24.23
2023-04-28T02:23:56.864Z,24.23
2023-04-28T02:24:56.902Z,24.23
2023-04-28T02:25:56.967Z,24.24
2023-04-28T02:26:56.996Z,24.22
2023-04-28T02:27:57.035Z,24.23
2023-04-28T02:28:57.075Z,24.20
2023-04-28T02:29:57.126Z,24.22
2023-04-28T02:30:57.171Z,24.20
2023-04-28T02:31:57.374Z,24.24
2023-04-28T02:32:57.285Z,24.23
2023-04-28T02:33:57.311Z,24.22
2023-04-28T02:34:57.411Z,24.22
2023-04-28T02:35:57.401Z,24.19
2023-04-28T02:36:57.450Z,24.19
2023-04-28T02:37:57.495Z,24.20
2023-04-28T02:38:57.535Z,24.20
2023-04-28T02:39:57.575Z,24.20
2023-04-28T02:40:57.619Z,24.22
2023-04-28T02:41:57.675Z,24.20
2023-04-28T02:42:57.715Z,24.23
2023-04-28T02:43:57.752Z,24.20
2023-04-28T02:44:57.812Z,24.20
2023-04-28T02:45:57.857Z,24.23
2023-04-28T02:46:57.988Z,24.22
2023-04-28T02:47:58.018Z,24.22
2023-04-28T02:48:58.008Z,24.22
2023-04-28T02:49:58.048Z,24.19
2023-04-28T02:50:58.198Z,24.22
2023-04-28T02:51:58.127Z,24.20
2023-04-28T02:52:58.173Z,24.19
2023-04-28T02:53:58.211Z,24.20
2023-04-28T02:54:58.262Z,24.20
2023-04-28T02:55:58.305Z,24.20
2023-04-28T02:56:58.364Z,24.20
2023-04-28T02:57:58.393Z,24.20
2023-04-28T02:58:58.437Z,24.22
2023-04-28T02:59:58.507Z,24.22
2023-04-28T03:00:58.608Z,24.19
2023-04-28T03:01:58.579Z,24.19
2023-04-28T03:02:58.920Z,24.19
2023-04-28T03:03:59.016Z,24.19
2023-04-28T03:04:58.805Z,24.19
2023-04-28T03:05:58.766Z,24.19
2023-04-28T03:06:58.837Z,24.20
2023-04-28T03:07:58.878Z,24.19
2023-04-28T03:08:58.935Z,24.19
2023-04-28T03:09:58.956Z,24.19
2023-04-28T03:10:59.022Z,24.22
2023-04-28T03:11:59.053Z,24.20
2023-04-28T03:12:59.100Z,24.19
2023-04-28T03:13:59.146Z,24.19
2023-04-28T03:14:59.210Z,24.17
2023-04-28T03:15:59.327Z,24.19
2023-04-28T03:16:59.293Z,24.20
2023-04-28T03:17:59.406Z,24.20
2023-04-28T03:18:59.395Z,24.22
2023-04-28T03:19:59.445Z,24.23
2023-04-28T03:20:59.515Z,24.23
2023-04-28T03:21:59.540Z,24.27
2023-04-28T03:22:59.611Z,24.26
2023-04-28T03:23:59.617Z,24.30
2023-04-28T03:24:59.657Z,24.30
2023-04-28T03:25:59.717Z,24.33
2023-04-28T03:26:59.748Z,24.33
2023-04-28T03:27:59.786Z,24.34
2023-04-28T03:28:59.814Z,24.37
2023-04-28T03:29:59.848Z,24.37
2023-04-28T03:30:59.898Z,24.37
2023-04-28T03:31:59.956Z,24.37
2023-04-28T03:33:00.004Z,24.36
2023-04-28T03:34:00.030Z,24.36
2023-04-28T03:35:00.037Z,24.37
2023-04-28T03:36:00.091Z,24.39
2023-04-28T03:37:00.152Z,24.37
2023-04-28T03:38:00.139Z,24.37
2023-04-28T03:39:00.255Z,24.37
2023-04-28T03:40:00.273Z,24.39
2023-04-28T03:41:00.214Z,24.36
2023-04-28T03:42:00.233Z,24.36
2023-04-28T03:43:01.250Z,24.37
2023-04-28T03:44:00.237Z,24.37
2023-04-28T03:45:00.252Z,24.40
2023-04-28T03:46:00.238Z,24.39
2023-04-28T03:47:00.196Z,24.40
2023-04-28T03:48:00.222Z,24.39
2023-04-28T03:49:00.154Z,24.41
2023-04-28T03:50:00.135Z,24.43
2023-04-28T03:51:00.104Z,24.40
2023-04-28T03:52:00.119Z,24.43
2023-04-28T03:53:00.090Z,24.44
2023-04-28T03:54:00.070Z,24.46
2023-04-28T03:55:00.097Z,24.46
2023-04-28T03:56:00.046Z,24.48
2023-04-28T03:57:00.042Z,24.48
2023-04-28T03:58:00.007Z,24.50
2023-04-28T03:58:59.994Z,24.47
2023-04-28T04:00:00.006Z,24.50
2023-04-28T04:00:59.964Z,24.51
2023-04-28T04:01:59.943Z,24.50
2023-04-28T04:03:00.044Z,24.50
2023-04-28T04:04:00.170Z,24.51
2023-04-28T04:05:01.123Z,24.51
2023-04-28T04:05:59.884Z,24.51
2023-04-28T04:06:59.865Z,24.54
2023-04-28T04:07:59.871Z,24.54
2023-04-28T04:08:59.871Z,24.54
2023-04-28T04:10:00.945Z,24.57
2023-04-28T04:10:59.885Z,24.54
2023-04-28T04:11:59.872Z,24.56
2023-04-28T04:12:59.824Z,24.58
2023-04-28T04:13:59.807Z,24.58
2023-04-28T04:14:59.789Z,24.60
2023-04-28T04:15:59.815Z,24.58
2023-04-28T04:16:59.759Z,24.61
2023-04-28T04:17:59.769Z,24.63
2023-04-28T04:18:59.725Z,24.64
2023-04-28T04:19:59.716Z,24.63
2023-04-28T04:20:59.697Z,24.64
2023-04-28T04:21:59.700Z,24.61
2023-04-28T04:22:59.659Z,24.61
2023-04-28T04:23:59.647Z,24.64
2023-04-28T04:24:59.629Z,24.64
2023-04-28T04:25:59.617Z,24.64
2023-04-28T04:26:59.630Z,24.63
2023-04-28T04:27:59.592Z,24.66
2023-04-28T04:28:59.587Z,24.64
2023-04-28T04:29:59.570Z,24.67
2023-04-28T04:30:59.615Z,24.64
2023-04-28T04:31:59.536Z,24.66
2023-04-28T04:32:59.596Z,24.66
2023-04-28T04:33:59.510Z,24.63
2023-04-28T04:34:59.491Z,24.64
2023-04-28T04:35:59.478Z,24.64
2023-04-28T04:36:59.465Z,24.66
2023-04-28T04:37:59.441Z,24.64
2023-04-28T04:38:59.432Z,24.66
2023-04-28T04:39:59.434Z,24.67
2023-04-28T04:40:59.408Z,24.68
2023-04-28T04:42:01.765Z,24.67
2023-04-28T04:42:59.394Z,24.67
2023-04-28T04:43:59.346Z,24.67
2023-04-28T04:44:59.325Z,24.68
2023-04-28T04:45:59.323Z,24.70
2023-04-28T04:46:59.307Z,24.67
2023-04-28T04:47:59.316Z,24.71
2023-04-28T04:48:59.255Z,24.67
2023-04-28T04:49:59.245Z,24.68
2023-04-28T04:50:59.237Z,24.70
2023-04-28T04:51:59.215Z,24.67
2023-04-28T04:52:59.200Z,24.70
2023-04-28T04:53:59.191Z,24.71
2023-04-28T04:54:59.172Z,24.71
2023-04-28T04:55:59.164Z,24.71
2023-04-28T04:56:59.133Z,24.72
2023-04-28T04:57:59.123Z,24.72
2023-04-28T04:58:59.138Z,24.72
2023-04-28T04:59:59.076Z,24.72
2023-04-28T05:00:59.055Z,24.72
2023-04-28T05:01:59.085Z,24.71
2023-04-28T05:02:59.173Z,24.74
2023-04-28T05:03:59.154Z,24.71
2023-04-28T05:05:07.995Z,24.74
2023-04-28T05:05:58.989Z,24.75
2023-04-28T05:06:58.959Z,24.74
2023-04-28T05:07:58.971Z,24.74
2023-04-28T05:08:58.943Z,24.75
2023-04-28T05:09:58.926Z,24.75
2023-04-28T05:10:58.906Z,24.75
2023-04-28T05:11:58.893Z,24.78
2023-04-28T05:12:58.874Z,24.81
2023-04-28T05:13:58.856Z,24.81
2023-04-28T05:14:58.861Z,24.78
2023-04-28T05:15:58.874Z,24.79
2023-04-28T05:16:58.836Z,24.81
2023-04-28T05:17:58.900Z,24.81
2023-04-28T05:18:58.762Z,24.81
2023-04-28T05:19:58.738Z,24.81
2023-04-28T05:20:58.726Z,24.79
2023-04-28T05:21:58.854Z,24.79
2023-04-28T05:22:58.699Z,24.84
2023-04-28T05:23:58.857Z,24.84
2023-04-28T05:24:58.678Z,24.85
2023-04-28T05:25:58.655Z,24.86
2023-04-28T05:26:58.644Z,24.88
2023-04-28T05:27:58.854Z,24.85
2023-04-28T05:28:58.857Z,24.85
2023-04-28T05:29:58.639Z,24.85
2023-04-28T05:30:58.644Z,24.85
2023-04-28T05:31:58.599Z,24.86
2023-04-28T05:32:58.529Z,24.86
2023-04-28T05:33:58.914Z,24.88
2023-04-28T05:34:58.465Z,24.88
2023-04-28T05:35:58.476Z,24.89
2023-04-28T05:36:58.415Z,24.88
2023-04-28T05:37:58.392Z,24.88
2023-04-28T05:38:59.029Z,24.84
2023-04-28T05:39:58.360Z,24.86
2023-04-28T05:40:58.344Z,24.88
2023-04-28T05:41:58.374Z,24.91
2023-04-28T05:42:58.373Z,24.92
2023-04-28T05:43:58.771Z,24.92
2023-04-28T05:44:58.390Z,24.92
2023-04-28T05:45:58.265Z,24.95
2023-04-28T05:46:58.457Z,24.92
2023-04-28T05:47:58.204Z,24.92
2023-04-28T05:48:58.182Z,24.95
2023-04-28T05:49:58.366Z,24.94
2023-04-28T05:50:59.350Z,24.92
2023-04-28T05:52:01.281Z,24.91
2023-04-28T05:52:58.021Z,24.89
2023-04-28T05:54:01.195Z,24.89
2023-04-28T05:54:58.492Z,24.91
2023-04-28T05:55:58.371Z,24.95
2023-04-28T05:56:59.509Z,24.98
2023-04-28T05:57:58.380Z,24.99
2023-04-28T05:58:59.406Z,25.02
2023-04-28T05:59:57.976Z,25.02
2023-04-28T06:01:05.422Z,25.09
2023-04-28T06:02:01.230Z,25.11
2023-04-28T06:02:59.070Z,25.13
2023-04-28T06:03:58.106Z,25.15
2023-04-28T06:04:58.537Z,25.19
2023-04-28T06:06:08.854Z,25.21
2023-04-28T06:06:57.872Z,25.21
2023-04-28T06:07:57.877Z,25.29
2023-04-28T06:08:57.794Z,25.30
2023-04-28T06:09:57.838Z,25.32
2023-04-28T06:10:57.742Z,25.40
2023-04-28T06:11:58.488Z,25.41
2023-04-28T06:12:57.860Z,25.44
2023-04-28T06:13:58.870Z,25.44
2023-04-28T06:14:59.514Z,25.49
2023-04-28T06:15:57.655Z,25.50
2023-04-28T06:16:58.871Z,25.49
2023-04-28T06:17:58.021Z,25.51
2023-04-28T06:18:56.513Z,25.54
2023-04-28T06:19:57.484Z,25.57
2023-04-28T06:20:59.406Z,25.58
2023-04-28T06:21:57.432Z,25.58
2023-04-28T06:22:59.373Z,25.63
2023-04-28T06:23:57.437Z,25.66
2023-04-28T06:24:57.547Z,25.68
2023-04-28T06:25:57.564Z,25.70
2023-04-28T06:26:57.876Z,25.73
2023-04-28T06:27:57.387Z,25.77
2023-04-28T06:28:57.235Z,25.78
2023-04-28T06:29:57.209Z,25.78
2023-04-28T06:30:57.519Z,25.83
2023-04-28T06:31:59.874Z,25.81
2023-04-28T06:32:57.197Z,25.84
2023-04-28T06:33:57.315Z,25.84
2023-04-28T06:34:58.500Z,25.89
2023-04-28T06:35:57.274Z,25.88
2023-04-28T06:36:57.279Z,25.89
2023-04-28T06:37:57.288Z,25.92
2023-04-28T06:38:57.480Z,25.95
2023-04-28T06:39:57.614Z,25.96
2023-04-28T06:40:57.937Z,25.96
2023-04-28T06:42:00.458Z,26.01
2023-04-28T06:42:57.349Z,25.99
2023-04-28T06:43:58.781Z,25.98
2023-04-28T06:45:04.817Z,25.99
2023-04-28T06:45:57.345Z,26.04
2023-04-28T06:46:57.446Z,26.02
2023-04-28T06:47:57.478Z,26.05
2023-04-28T06:48:57.264Z,26.04
2023-04-28T06:49:57.247Z,26.06
2023-04-28T06:50:57.181Z,26.06
2023-04-28T06:51:57.184Z,26.08
2023-04-28T06:52:57.379Z,26.08
2023-04-28T06:53:57.113Z,26.08
2023-04-28T06:54:57.114Z,26.09
2023-04-28T06:55:57.131Z,26.11
2023-04-28T06:56:57.163Z,26.12
2023-04-28T06:57:57.382Z,26.13
2023-04-28T06:58:57.582Z,26.15
2023-04-28T06:59:57.161Z,26.13
2023-04-28T07:00:57.262Z,26.18
2023-04-28T07:01:57.713Z,26.18
2023-04-28T07:02:57.460Z,26.18
2023-04-28T07:03:57.402Z,26.18
2023-04-28T07:04:57.217Z,26.19
2023-04-28T07:05:57.254Z,26.22
2023-04-28T07:06:57.255Z,26.18
2023-04-28T07:07:57.249Z,26.16
2023-04-28T07:08:57.251Z,26.22
2023-04-28T07:09:57.266Z,26.22
2023-04-28T07:10:57.397Z,26.22
2023-04-28T07:11:57.394Z,26.23
2023-04-28T07:12:57.387Z,26.23
2023-04-28T07:13:57.302Z,26.23
2023-04-28T07:14:57.302Z,26.26
2023-04-28T07:15:57.345Z,26.26
2023-04-28T07:16:57.300Z,26.28
2023-04-28T07:17:57.436Z,26.29
2023-04-28T07:18:57.326Z,26.29
2023-04-28T07:19:57.337Z,26.28
2023-04-28T07:20:57.341Z,26.31
2023-04-28T07:21:57.371Z,26.29
2023-04-28T07:22:57.411Z,26.31
2023-04-28T07:23:57.400Z,26.31
2023-04-28T07:24:57.404Z,26.32
2023-04-28T07:25:57.377Z,26.33
2023-04-28T07:26:57.403Z,26.32
2023-04-28T07:27:57.398Z,26.26
2023-04-28T07:28:57.409Z,26.32
2023-04-28T07:29:57.358Z,26.31
2023-04-28T07:30:57.362Z,26.32
2023-04-28T07:31:57.424Z,26.32
2023-04-28T07:32:57.476Z,26.33
2023-04-28T07:33:57.358Z,26.31
2023-04-28T07:34:57.382Z,26.32
2023-04-28T07:35:57.402Z,26.33
2023-04-28T07:36:57.349Z,26.31
2023-04-28T07:37:57.383Z,26.33
2023-04-28T07:38:57.352Z,26.29
2023-04-28T07:39:57.346Z,26.21
2023-04-28T07:40:57.432Z,26.25
2023-04-28T07:41:57.403Z,26.25
2023-04-28T07:42:57.438Z,26.26
2023-04-28T07:43:57.393Z,26.26
2023-04-28T07:44:57.365Z,26.26
2023-04-28T07:45:57.388Z,26.23
2023-04-28T07:46:57.388Z,26.23
2023-04-28T07:47:57.476Z,26.19
2023-04-28T07:48:57.415Z,26.18
2023-04-28T07:49:57.903Z,26.16
2023-04-28T07:50:57.398Z,26.13
2023-04-28T07:51:57.898Z,26.09
2023-04-28T07:52:58.686Z,26.08
2023-04-28T07:53:57.446Z,26.05
2023-04-28T07:54:57.430Z,26.04
2023-04-28T07:55:57.469Z,25.99
2023-04-28T07:56:57.901Z,25.91
2023-04-28T07:58:00.825Z,25.88
2023-04-28T07:58:57.476Z,25.83
2023-04-28T07:59:57.479Z,25.81
2023-04-28T08:00:57.431Z,25.77
2023-04-28T08:01:57.452Z,25.76
2023-04-28T08:02:57.569Z,25.74
2023-04-28T08:03:57.981Z,25.71
2023-04-28T08:04:57.615Z,25.68
2023-04-28T08:05:57.690Z,25.68
2023-04-28T08:06:57.219Z,25.67
2023-04-28T08:07:57.182Z,25.64
2023-04-28T08:08:57.528Z,25.64
2023-04-28T08:09:57.378Z,25.63
2023-04-28T08:10:57.116Z,25.63
2023-04-28T08:11:57.405Z,25.60
2023-04-28T08:12:57.054Z,25.60
2023-04-28T08:13:56.981Z,25.60
2023-04-28T08:14:56.949Z,25.58
2023-04-28T08:15:57.001Z,25.57
2023-04-28T08:16:56.976Z,25.57
2023-04-28T08:17:57.012Z,25.57
2023-04-28T08:18:57.069Z,25.56
2023-04-28T08:19:57.075Z,25.54
2023-04-28T08:20:57.107Z,25.53
2023-04-28T08:21:57.412Z,25.53
2023-04-28T08:22:57.596Z,25.53
2023-04-28T08:23:57.199Z,25.50
2023-04-28T08:24:57.274Z,25.47
2023-04-28T08:25:57.268Z,25.47
2023-04-28T08:26:57.413Z,25.47
2023-04-28T08:27:57.579Z,25.44
2023-04-28T08:28:57.356Z,25.50
2023-04-28T08:29:58.055Z,25.44
2023-04-28T08:30:57.952Z,25.47
2023-04-28T08:31:57.446Z,25.44
2023-04-28T08:32:57.928Z,25.44
2023-04-28T08:33:57.541Z,25.49
2023-04-28T08:34:57.929Z,25.46
2023-04-28T08:35:57.599Z,25.44
2023-04-28T08:36:57.621Z,25.44
2023-04-28T08:37:57.661Z,25.46
2023-04-28T08:38:57.706Z,25.44
2023-04-28T08:39:57.913Z,25.43
2023-04-28T08:40:57.758Z,25.43
2023-04-28T08:41:57.747Z,25.39
2023-04-28T08:42:57.958Z,25.34
2023-04-28T08:44:29.627Z,25.26
2023-04-28T08:44:57.723Z,25.23
2023-04-28T08:45:57.669Z,25.23
2023-04-28T08:46:57.706Z,25.26
2023-04-28T08:47:58.007Z,25.25
2023-04-28T08:48:57.594Z,25.29
2023-04-28T08:49:57.566Z,25.32
2023-04-28T08:50:57.533Z,25.34
2023-04-28T08:51:57.568Z,25.33
2023-04-28T08:52:57.965Z,25.39
2023-04-28T08:54:28.964Z,25.39
2023-04-28T08:54:57.560Z,25.41
2023-04-28T08:55:57.457Z,25.43
2023-04-28T08:56:57.414Z,25.44
2023-04-28T08:57:57.350Z,25.47
2023-04-28T08:58:57.339Z,25.46
2023-04-28T08:59:57.270Z,25.49
2023-04-28T09:00:57.239Z,25.51
2023-04-28T09:01:57.271Z,25.53
2023-04-28T09:02:57.659Z,25.53
2023-04-28T09:03:57.439Z,25.56
2023-04-28T09:04:57.757Z,25.56
2023-04-28T09:05:57.071Z,25.56
2023-04-28T09:06:57.058Z,25.56
2023-04-28T09:07:57.613Z,25.53
2023-04-28T09:08:57.201Z,25.51
2023-04-28T09:09:57.187Z,25.51
2023-04-28T09:10:57.049Z,25.51
2023-04-28T09:11:57.272Z,25.49
2023-04-28T09:12:57.156Z,25.49
2023-04-28T09:13:56.934Z,25.47
2023-04-28T09:14:57.305Z,25.47
2023-04-28T09:15:56.969Z,25.47
2023-04-28T09:16:57.095Z,25.46
2023-04-28T09:17:57.099Z,25.47
2023-04-28T09:18:57.742Z,25.44
2023-04-28T09:19:56.905Z,25.46
2023-04-28T09:20:56.987Z,25.46
2023-04-28T09:21:56.825Z,25.40
2023-04-28T09:22:57.032Z,25.43
2023-04-28T09:23:55.861Z,25.41
2023-04-28T09:24:56.956Z,25.40
2023-04-28T09:25:56.893Z,25.40
2023-04-28T09:26:56.734Z,25.39
2023-04-28T09:27:57.125Z,25.40
2023-04-28T09:28:56.641Z,25.41
2023-04-28T09:29:56.599Z,25.40
2023-04-28T09:30:56.422Z,25.39
2023-04-28T09:31:56.444Z,25.41
2023-04-28T09:32:56.497Z,25.40
2023-04-28T09:33:56.332Z,25.40
2023-04-28T09:34:56.315Z,25.40
2023-04-28T09:35:56.268Z,25.39
2023-04-28T09:36:56.264Z,25.39
2023-04-28T09:37:56.452Z,25.37
2023-04-28T09:38:56.999Z,25.39
2023-04-28T09:39:56.145Z,25.36
2023-04-28T09:40:56.137Z,25.34
2023-04-28T09:41:56.448Z,25.32
2023-04-28T09:42:56.039Z,25.30
2023-04-28T09:43:55.994Z,25.28
2023-04-28T09:44:56.062Z,25.22
2023-04-28T09:45:55.976Z,25.22
2023-04-28T09:47:03.339Z,25.18
2023-04-28T09:47:55.971Z,25.16
2023-04-28T09:48:55.849Z,25.13
2023-04-28T09:49:55.957Z,25.12
2023-04-28T09:50:55.787Z,25.08
2023-04-28T09:51:56.114Z,25.08
2023-04-28T09:52:56.072Z,25.06
2023-04-28T09:53:55.697Z,25.08
2023-04-28T09:54:55.660Z,25.08
2023-04-28T09:55:55.704Z,25.09
2023-04-28T09:56:55.666Z,25.11
2023-04-28T09:57:55.945Z,25.13
2023-04-28T09:58:55.965Z,25.11
2023-04-28T09:59:55.532Z,25.11
2023-04-28T10:00:55.585Z,25.13
2023-04-28T10:01:55.477Z,25.12
2023-04-28T10:02:55.581Z,25.13
2023-04-28T10:03:55.537Z,25.15
2023-04-28T10:04:55.532Z,25.12
2023-04-28T10:05:55.362Z,25.16
2023-04-28T10:06:55.352Z,25.19
2023-04-28T10:07:55.316Z,25.16
2023-04-28T10:08:55.454Z,25.18
2023-04-28T10:09:55.281Z,25.16
2023-04-28T10:10:55.244Z,25.18
2023-04-28T10:11:55.215Z,25.18
2023-04-28T10:12:55.180Z,25.15
2023-04-28T10:13:55.457Z,25.15
2023-04-28T10:14:55.153Z,25.15
2023-04-28T10:15:55.684Z,25.15
2023-04-28T10:16:55.127Z,25.13
2023-04-28T10:17:55.277Z,25.13
2023-04-28T10:18:55.453Z,25.11
2023-04-28T10:19:55.022Z,25.09
2023-04-28T10:20:54.995Z,25.12
2023-04-28T10:21:54.974Z,25.12
2023-04-28T10:22:56.187Z,25.11
2023-04-28T10:23:54.954Z,25.11
2023-04-28T10:24:54.921Z,25.09
2023-04-28T10:25:54.886Z,25.11
2023-04-28T10:26:54.899Z,25.08
2023-04-28T10:27:55.027Z,25.11
2023-04-28T10:28:54.954Z,25.08
2023-04-28T10:29:54.810Z,25.08
2023-04-28T10:30:55.050Z,25.11
2023-04-28T10:31:54.749Z,25.08
2023-04-28T10:32:54.871Z,25.06
2023-04-28T10:33:55.034Z,25.06
2023-04-28T10:34:54.729Z,25.08
2023-04-28T10:35:54.674Z,25.06
2023-04-28T10:36:54.708Z,25.06
2023-04-28T10:37:54.988Z,25.08
2023-04-28T10:38:54.691Z,25.08
2023-04-28T10:39:54.712Z,25.05
2023-04-28T10:40:54.966Z,25.03
2023-04-28T10:41:54.725Z,25.05
2023-04-28T10:42:54.708Z,25.08
2023-04-28T10:43:54.718Z,25.03
2023-04-28T10:44:54.715Z,25.05
2023-04-28T10:45:56.536Z,25.03
2023-04-28T10:46:55.021Z,25.02
2023-04-28T10:47:54.713Z,25.05
2023-04-28T10:48:55.028Z,25.01
2023-04-28T10:49:54.623Z,25.01
2023-04-28T10:50:54.602Z,25.03
2023-04-28T10:51:54.574Z,25.03
2023-04-28T10:52:54.558Z,25.02
2023-04-28T10:53:54.976Z,25.03
2023-04-28T10:54:54.530Z,25.03
2023-04-28T10:55:54.998Z,25.02
2023-04-28T10:56:54.469Z,25.02
2023-04-28T10:57:54.494Z,25.03
2023-04-28T10:58:55.267Z,25.03
2023-04-28T10:59:54.418Z,25.02
2023-04-28T11:00:54.400Z,25.01
2023-04-28T11:01:54.405Z,25.02
2023-04-28T11:02:54.503Z,24.99
2023-04-28T11:03:54.993Z,25.03
2023-04-28T11:04:54.625Z,25.02
2023-04-28T11:05:54.290Z,25.02
2023-04-28T11:06:54.266Z,25.01
2023-04-28T11:07:54.247Z,25.01
2023-04-28T11:08:54.219Z,25.03
2023-04-28T11:09:54.575Z,24.99
2023-04-28T11:10:54.197Z,25.01
2023-04-28T11:11:54.474Z,25.02
2023-04-28T11:12:54.137Z,25.02
2023-04-28T11:13:54.107Z,25.01
2023-04-28T11:14:54.075Z,25.01
2023-04-28T11:15:54.072Z,24.99
2023-04-28T11:16:54.546Z,24.98
2023-04-28T11:17:54.210Z,24.99
2023-04-28T11:18:55.707Z,25.01
2023-04-28T11:19:53.999Z,25.01
2023-04-28T11:20:53.963Z,25.02
2023-04-28T11:21:53.917Z,25.03
2023-04-28T11:22:53.888Z,25.03
2023-04-28T11:23:53.995Z,25.03
2023-04-28T11:24:54.102Z,25.02
2023-04-28T11:25:53.831Z,25.01
2023-04-28T11:26:53.877Z,24.94
2023-04-28T11:27:53.780Z,24.98
2023-04-28T11:28:54.003Z,24.99
2023-04-28T11:29:53.737Z,25.01
2023-04-28T11:30:54.253Z,24.99
2023-04-28T11:31:53.806Z,24.98
2023-04-28T11:32:53.730Z,24.96
2023-04-28T11:33:53.650Z,24.99
2023-04-28T11:34:53.609Z,24.99
2023-04-28T11:35:53.584Z,24.99
2023-04-28T11:36:54.904Z,25.05
2023-04-28T11:37:53.580Z,25.01
2023-04-28T11:38:53.996Z,24.99
2023-04-28T11:39:53.567Z,25.03
2023-04-28T11:40:53.560Z,25.05
2023-04-28T11:41:53.559Z,25.02
2023-04-28T11:42:54.465Z,25.02
2023-04-28T11:43:53.584Z,25.03
2023-04-28T11:44:53.941Z,25.03
2023-04-28T11:45:53.631Z,25.05
2023-04-28T11:46:53.567Z,25.05
2023-04-28T11:47:53.628Z,25.08
2023-04-28T11:48:53.568Z,25.08
2023-04-28T11:49:53.544Z,25.06
2023-04-28T11:50:53.531Z,25.08
2023-04-28T11:51:53.518Z,25.09
2023-04-28T11:52:54.019Z,25.05
2023-04-28T11:53:53.506Z,25.06
2023-04-28T11:54:53.473Z,25.08
2023-04-28T11:55:53.456Z,25.08
2023-04-28T11:56:53.475Z,25.05
2023-04-28T11:57:53.445Z,25.09
2023-04-28T11:58:53.453Z,25.09
2023-04-28T11:59:53.417Z,25.08
2023-04-28T12:00:53.413Z,25.08
2023-04-28T12:01:53.446Z,25.11
2023-04-28T12:02:53.495Z,25.05
2023-04-28T12:03:53.519Z,25.08
2023-04-28T12:04:53.368Z,25.08
2023-04-28T12:05:53.364Z,25.11
2023-04-28T12:06:53.333Z,25.12
2023-04-28T12:07:53.315Z,25.08
2023-04-28T12:08:53.534Z,25.09
2023-04-28T12:09:53.284Z,25.12
2023-04-28T12:10:53.278Z,25.11
2023-04-28T12:11:53.254Z,25.12
2023-04-28T12:12:53.620Z,25.12
2023-04-28T12:13:53.302Z,25.12
2023-04-28T12:14:53.198Z,25.11
2023-04-28T12:15:53.224Z,25.13
2023-04-28T12:16:53.189Z,25.12
2023-04-28T12:17:53.240Z,25.13
2023-04-28T12:18:53.142Z,25.12
2023-04-28T12:19:53.130Z,25.11
2023-04-28T12:20:53.117Z,25.15
2023-04-28T12:21:53.143Z,25.15
2023-04-28T12:22:53.101Z,25.12
2023-04-28T12:23:53.509Z,25.13
2023-04-28T12:24:53.099Z,25.15
2023-04-28T12:25:53.068Z,25.13
2023-04-28T12:26:53.056Z,25.15
2023-04-28T12:27:53.056Z,25.15
2023-04-28T12:28:53.041Z,25.15
2023-04-28T12:29:53.021Z,25.15
2023-04-28T12:30:52.998Z,25.15
2023-04-28T12:31:53.207Z,25.16
2023-04-28T12:32:52.981Z,25.18
2023-04-28T12:33:52.958Z,25.18
2023-04-28T12:34:53.000Z,25.19
2023-04-28T12:35:52.933Z,25.18
2023-04-28T12:36:52.924Z,25.15
2023-04-28T12:37:53.907Z,25.21
2023-04-28T12:38:52.917Z,25.16
2023-04-28T12:39:53.004Z,25.12
2023-04-28T12:40:52.998Z,25.13
2023-04-28T12:41:52.904Z,25.15
2023-04-28T12:42:52.872Z,25.13
2023-04-28T12:43:53.042Z,25.15
2023-04-28T12:44:52.834Z,25.13
2023-04-28T12:45:52.846Z,25.15
2023-04-28T12:46:52.793Z,25.15
2023-04-28T12:47:52.800Z,25.16
2023-04-28T12:48:52.888Z,25.18
2023-04-28T12:49:52.753Z,25.18
2023-04-28T12:50:53.049Z,25.19
2023-04-28T12:51:52.738Z,25.19
2023-04-28T12:52:52.726Z,25.18